Timeline UpdatesTrip UpdatesNews PostsPvt Posts♥♥Travel TipsAdmin PostsConv PostsFollowed PostsChat RequestsBlog PostsPNR Posts

Disclaimer
Search
 
 
Fri Nov 28, 2014 14:05:26 ISTHomeTrainsΣChainsAtlasPNRForumGalleryNewsFAQTripsMembersLoginFeedback
No Recent News for this Train
Other Trains in the News **new
Latest...
.
Fri Jun 20, 2014 (04:04PM)
⇐ Return Journey: Train# 12522

12521/Rapti Sagar SF Express

NO Time-Table Change.
Sep 01 2014 (9:44PM)
Change Departure Station:
Change Arrival Station:
Post a Train Travel TipPost a Train Travel Tip **new
Post a Comment/Question/Picture/VideoPost a Comment/Question/Picture/Video
Pantry/Catering
✓ Pantry Car Avbl
✓ Catering Avbl
Loco/Rake Reversals
LJN/Lucknow Junction NER (6); SRR/Shoranur Junction (7); MAS/Chennai Central (12);
RSA - Rake Sharing
NO RSA.
Rake/Coach Composition
LOCO-SLR-GS-A1-B1-B2-B3-PC-S1-S2-S3-S4-S5-S6-S7-S8-S9-S10-S11-S12-S13-S14-GS-GS-SLR
Loco
Loco Link: BJU to JHS - GD WDM 3A JHS to MAS...
Read more...
- ET WAP 4 MAS to ERS - AJJ WAM 4
News    PNR    Forum    Time-Table    Availability    Fare Chart    Map    Arr/Dep History    Trips    Gallery    ΣChains    X/O    Timeline    
Travel Time: 4h 55m    2 halts    Distance: 334 km    Avg Speed: 67 km/hr
Type: SuperFast
Zone: ECR/East Central
Departs @ 23:45 (Avg 2h 8m late)
Platform# 8
   W   
Chennai Central/MAS 
Arrives @ 04:40 +1 night (Avg 2h 43m late)
Platform# ???
    T  
Salem Junction/SA 

2 halts. 71 intermediate Stations between Chennai Central and Salem Junction

Show ALL intermediate Stations  

#TrkCodeStation NameX/OArrivesAvgDepartsAvgHaltPFDay#KmSpeedElevZoneAddress
1/==/BJUBarauni Junction (9)  -23:00+451-2735.35949mECRBegusarai, Bihar
2/==/SPJSamastipur Junction (9)  23:51+1623:56+165m--1-2684.86455mECRSamastipur, Bihar
3/==/MFPMuzaffarpur Junction (6)  00:45+2500:50+265m42-2632.66757mECRMuzaffarpur, Bihar
4/=-/HJPHajipur Junction (3)  01:38+4001:39+431m22-2578.83355mECR06224-272230, Bihar
5/==/SEESonpur Junction (4)X  01:49+4401:52+443m--2-2573.34856mECRSaran, Bihar
6/==/CPRChhapra Junction (6)  03:00+4603:05+475m--2-2519.28258mNERDistt: Saran, Bihar
7%==%SVSiwan Junction (4)  03:50+5503:55+555m--2-2458.08470mNERSiwan, Bihar
8%==%BTTBhatni Junction (5)  04:30+1:0304:35+1:025m--2-2409.36673mNERDeoria, Uttar Pradesh
9%==%DEOSDeoria Sadar (3)  04:54+1:0404:55+1:071m--2-2388.63579mNERDeoria- 274001, Uttar Pradesh
10%==%GKPGorakhpur Junction (10)X  06:20+5806:35+5815m92-2339.45284mNERGorakhpur 273001, Uttar Pradesh
11%==%KLDKhalilabad (3)  07:14+1:0107:15+1:021m32-2305.57186mNERKhalilabad- 272175, Uttar Pradesh
12%==%BSTBasti (4)X  07:40+1:0207:45+1:025m12-2276.08190mNERBasti 272001, Uttar Pradesh
13%==%MURMankapur Junction (5)  08:30+1:0108:32+1:012m12-2215.460104mNERDistrict Gonda, Uttar Pradesh
14%==/GDGonda Junction (3)  09:00+1:0009:05+1:015m12-2187.565110mNERGonda 271001, Uttar Pradesh
15/==/BBKBarabanki Junction (4)  10:27+1:0610:29+1:062m12-2098.253124mNRPin-225001, Uttar Pradesh
16/--/BNZBadshahnagar (2)  10:57+1:1210:58+1:131m12-2073.621116mNERLucknow, Uttar Pradesh
17/--/LJNLucknow Junction NER (6)X11:30+1:0111:50+5820m12-2062.663126mNERLucknow, Uttar Pradesh
18/==/ONUnnao Junction (5)X  12:41+1:2112:42+1:221m52-2008.730129mNRUnnao, Uttar Pradesh
19/==/CNBKanpur Central (10)  13:17+1:2713:22+1:305m52-1991.363128mNCRKANPUR-208 001, Uttar Pradesh
20/--/PHNPokhrayan (2)  14:18+1:5414:19+1:551m12-1932.964133mNCRPukhrayan, Uttar Pradesh
21/--/ORAIOrai (3)  15:04+2:0215:05+2:071m--2-1885.070139mNCROrai(05162-252206), Uttar Pradesh
22/--/JHSJhansi Junction (7)16:43+2:2016:55+2:3512m--2-1771.186259mNCRJhansi, Uttar Pradesh
23/==/LARLalitpur (3)  17:58+2:5317:59+2:541m12-1680.862373mNCRLalitpur, Uttar Pradesh
24/==/BPLBhopal Junction (6)X  21:15+2:4221:20+2:445m12-1479.355497mWCRBhopal, Madhya Pradesh
25/==/ETItarsi Junction (7)  23:00+2:5623:05+3:025m--2-1387.567329mWCRItarsi 461111, Madhya Pradesh
26/==/GDYAGhoradongri (3)  00:08+3:1000:09+3:201m--3-1317.248407mCRBetul, Madhya Pradesh
27/==/BZUBetul (3)X  00:54+3:3100:55+3:331m--3-1281.257644mCRBetul, Madhya Pradesh
28/==/AMLAAmla Junction (5)X  01:19+3:3201:22+3:343m--3-1258.368733mCRAmla Distt. Betul, Madhya Pradesh
29/==/PARPandhurna (2)  02:18+3:4602:19+3:471m--3-1194.769481mCRDistt: Chhindwara, Madhya Pradesh
30/==/NGPNagpur Junction (8)  03:50+3:5304:00+3:5610m23-1090.478314mCRNagpur 440001, Maharashtra
31/==/SEGMSewagram Junction (5)  04:59+4:1405:00+4:151m--3-1014.151279mCRWardha, Maharashtra
32/==/HGTHinganghat (3)  05:39+4:0405:40+4:041m--3-981.067228mCRHinganghat, Maharashtra
33/==/CDChandrapur Maharashtra (3)  06:57+3:5206:58+3:521m--3-895.612194mCRChandrapur 442401, Maharashtra
34/==/BPQBalharshah Junction (5)XO  08:05+3:1208:35+2:5630m--3-881.884188mCRBallarpur. Ph : 07172 - 240341, Maharashtra
35/==/SKZRSirpur Kaghaznagar (3)  09:25+3:0509:26+3:051m23-812.062181mSCRAdilabad Dist., Telangana
36/==/BPABellampalli (3)  10:03+3:0010:04+3:011m23-773.679205mSCRTel:.08735 223298, Telangana
37/==/MCIManchiryal (3)  10:19+3:0710:20+3:071m23-753.792159mSCRAdilabad Dist., Telangana
38/==/RDMRamagundam (3)X  10:29+3:1610:30+3:161m23-740.065170mSCRKarimnagar Dist. Ph : 08728 - 255237, Telangana
39/==/WLWarangal (3)  12:03+3:2312:05+3:252m13-638.871271mSCRWarangal., Telangana
40/==/KMTKhammam (2)  13:36+2:4513:37+2:451m13-531.245118mSCRKhammam 507001, Telangana
41/==/BZAVijayawada Junction (10)X  15:50+2:4816:05+2:4915m73-430.97324mSCRVijayawada 520001, Andhra Pradesh
42/==/CLXChirala (4)O  17:18+2:5117:19+2:521m--3-341.9678mSCRChirala, Andhra Pradesh
43/==/OGLOngole (3)XO  18:03+2:5018:04+2:511m33-292.69312mSCROngole, Andhra Pradesh
44/==/NLRNellore (4)O  19:19+2:4119:20+2:411m33-175.82521mSCRNellore, Andhra Pradesh
45/==/GDRGudur Junction (3)  20:53+2:3120:55+2:312m13-137.45719mSCRGudur, Andhra Pradesh
46/==/MASChennai Central (12)»X23:20+2:1223:45+2:0825m830.0659mSRChennai 600003, Tamil Nadu
47/==/KPDKatpadi Junction (5)X  01:45+2:5001:50+2:485m14129.465213mSRVellore 632007, Tamil Nadu
48/==/JTJJolarpettai Junction (5)  03:08+2:3603:10+2:382m--4213.380405mSRJolarpettai, Tamil Nadu
49/==/SASalem Junction (6)•X  04:40+2:4304:45+2:435m--4333.549283mSRSalem, Tamil Nadu
50/==/EDErode Junction (4)X  06:00+2:1406:10+2:2210m24394.979175mSRErode ph.no: 0424-2256111, Tamil Nadu
51/==/TUPTiruppur (2)X  06:48+2:2806:50+2:282m14445.167305mSRTiruppur. Ph:0421-2200450, Tamil Nadu
52/==/CBECoimbatore Main Junction (6)  07:35+2:2607:40+2:255m14495.641416mSRCoimbatore 641001, Tamil Nadu
53/==/PGTPalakkad Junction (4)XO  09:00+2:5009:05+2:495m--4550.910084mSRPalghat Tel: 0491 2555231, Kerala
54/==/OTPOttappalam (2)  09:24+2:4309:25+2:441m--4582.61730mSROttapalam, Kerala
55/==/SRRShoranur Junction (7)10:10+2:5010:20+3:0110m54595.54726mSRShoranur ph.no 0466-2222913, Kerala
56/==/WKIWadakkanchery (2)X  10:41+3:3010:42+3:301m14612.05540mSRWadackanchery, Kerala
57/==/TCRThrissur (4)  11:00+2:3811:03+2:393m14628.4686mSRThrissur Tel: 0487 2423150, Kerala
58/==/IJKIrinjalakkuda (2)  11:24+3:3711:25+3:371m--4652.25518mSRKalletumkara, Kerala
59/==/CKIChalakkudy (3)  11:32+3:3711:33+3:381m14658.6659mSRPh: 0480- 2701368, Kerala
60/==/AFKAngamaly for Kalady (3)  11:47+3:4411:48+3:451m--4673.84616mSRPhone: 0484-2452340, Kerala
61/==/AWYAluva (3)X  12:00+3:0012:02+3:002m14683.03612mSRPh: 0484-2624141, Kerala
62/==/ERNErnakulam Town (North) (2)  12:30+2:4512:32+2:462m24699.969mSRTel: 0484 2395198, Kerala
63/=-/ERSErnakulam Junction (South) (6)  13:00+2:38---4702.4-3mSRErnakulam 682016, Kerala
Scroll to Top
Scroll to Bottom